Time;durP1;ratioP1;P1;durP2;ratioP2;P2;SDS_P1;SDS_P2;PMS_P1;PMS_P2;Temp;Humidity;BMP_temperature;BMP_pressure;BME280_temperature;BME280_humidity;BME280_pressure;Samples;Min_cycle;Max_cycle;Signal;HPM_P1;HPM_P2
2023/05/25 00:00:04;;;;;;;9.30;4.83;;;;;;;6.65;85.26;101691.88;5064730;28;20210;-72
2023/05/25 00:02:32;;;;;;;10.57;4.77;;;;;;;6.62;85.77;101696.91;5073691;28;20264;-72
2023/05/25 00:04:59;;;;;;;8.27;5.07;;;;;;;6.63;85.83;101703.72;5074209;28;20203;-72
2023/05/25 00:07:26;;;;;;;8.57;4.77;;;;;;;6.62;85.36;101707.38;5072956;28;20203;-72
2023/05/25 00:09:52;;;;;;;12.60;4.87;;;;;;;6.55;84.94;101702.44;5069314;28;20212;-72
2023/05/25 00:12:20;;;;;;;6.63;4.87;;;;;;;6.56;85.67;101703.19;5071795;28;20573;-72
2023/05/25 00:14:46;;;;;;;6.53;4.90;;;;;;;6.52;85.83;101699.56;5070924;28;20195;-72
2023/05/25 00:17:13;;;;;;;9.10;4.63;;;;;;;6.50;85.28;101694.59;5073777;28;20266;-72
2023/05/25 00:19:41;;;;;;;6.07;4.83;;;;;;;6.49;85.23;101693.03;5073230;28;20632;-72
2023/05/25 00:22:07;;;;;;;6.90;4.83;;;;;;;6.48;85.97;101696.69;5072974;28;20297;-72
2023/05/25 00:24:34;;;;;;;6.83;5.20;;;;;;;6.45;86.26;101704.31;5073386;28;20202;-72
2023/05/25 00:27:01;;;;;;;11.37;5.00;;;;;;;6.43;85.48;101701.19;5079521;28;20210;-72
2023/05/25 00:29:28;;;;;;;8.60;4.57;;;;;;;6.41;86.02;101703.28;5071592;28;20267;-72
2023/05/25 00:31:55;;;;;;;6.80;4.83;;;;;;;6.40;85.93;101699.09;5055160;28;20237;-72
2023/05/25 00:34:23;;;;;;;8.23;4.50;;;;;;;6.40;85.76;101705.13;5053456;28;20207;-72
2023/05/25 00:36:50;;;;;;;7.60;4.97;;;;;;;6.34;85.81;101708.03;5055109;28;20550;-72
2023/05/25 00:39:18;;;;;;;8.77;4.97;;;;;;;6.35;86.01;101704.38;5068470;28;20214;-72
2023/05/25 00:41:46;;;;;;;9.30;4.90;;;;;;;6.33;86.00;101707.25;5054285;28;20582;-72
2023/05/25 00:44:14;;;;;;;6.90;5.07;;;;;;;6.30;85.69;101705.19;5071813;28;20199;-72
2023/05/25 00:46:46;;;;;;;6.77;4.60;;;;;;;6.31;86.37;101709.38;5059457;28;20193;-72
2023/05/25 00:49:14;;;;;;;6.83;4.43;;;;;;;6.33;86.27;101715.13;5056979;28;20211;-72
2023/05/25 00:51:41;;;;;;;10.40;4.33;;;;;;;6.30;86.59;101713.06;5058245;28;20224;-72
2023/05/25 00:54:08;;;;;;;7.20;5.20;;;;;;;6.28;86.58;101717.78;5062905;28;20206;-72
2023/05/25 00:56:40;;;;;;;6.67;4.03;;;;;;;6.26;86.54;101712.00;5054153;28;20213;-72
2023/05/25 00:59:08;;;;;;;8.87;4.83;;;;;;;6.21;85.98;101711.25;5051726;28;20195;-72
2023/05/25 01:01:38;;;;;;;11.27;4.20;;;;;;;6.18;85.99;101714.41;5063485;28;20237;-72
2023/05/25 01:04:08;;;;;;;7.87;4.93;;;;;;;6.16;85.94;101719.16;5062437;28;20260;-72
2023/05/25 01:06:38;;;;;;;8.60;5.33;;;;;;;6.10;86.11;101718.38;5063027;28;20194;-72
2023/05/25 01:09:05;;;;;;;10.63;5.30;;;;;;;6.09;85.94;101724.69;5062712;28;20216;-72
2023/05/25 01:11:34;;;;;;;7.60;4.80;;;;;;;6.09;86.03;101723.88;5054251;28;20226;-72
2023/05/25 01:14:02;;;;;;;7.27;4.53;;;;;;;6.09;86.18;101722.06;5072363;28;20210;-72
2023/05/25 01:16:28;;;;;;;9.33;5.40;;;;;;;6.07;86.34;101728.63;5057039;28;20688;-72
2023/05/25 01:18:54;;;;;;;6.87;5.00;;;;;;;6.09;86.92;101731.75;5059973;28;20210;-72
2023/05/25 01:21:28;;;;;;;9.40;5.10;;;;;;;6.06;86.53;101730.44;5053947;28;20230;-72
2023/05/25 01:24:02;;;;;;;10.00;5.30;;;;;;;6.07;86.68;101736.47;5053687;28;20669;-72
2023/05/25 01:26:36;;;;;;;9.33;4.80;;;;;;;6.04;87.15;101732.56;5044297;28;20229;-72
2023/05/25 01:29:04;;;;;;;7.40;4.47;;;;;;;6.02;86.60;101729.41;5053831;28;20211;-72
2023/05/25 01:31:32;;;;;;;7.97;5.00;;;;;;;6.04;87.03;101723.88;5062523;28;20221;-72
2023/05/25 01:33:58;;;;;;;10.77;5.70;;;;;;;6.03;87.14;101728.38;5071841;28;20194;-72
2023/05/25 01:36:26;;;;;;;7.83;4.60;;;;;;;5.99;86.94;101731.78;5053360;28;20202;-72
2023/05/25 01:38:52;;;;;;;7.07;4.77;;;;;;;5.99;87.17;101721.28;5052202;28;20665;-72
2023/05/25 01:41:19;;;;;;;9.57;5.10;;;;;;;5.98;87.22;101724.97;5056653;28;20230;-72
2023/05/25 01:43:46;;;;;;;12.87;5.33;;;;;;;6.02;87.67;101724.16;5054659;28;20557;-72
2023/05/25 01:46:19;;;;;;;6.83;4.80;;;;;;;5.97;87.26;101723.41;5071467;28;20203;-72
2023/05/25 01:48:54;;;;;;;10.03;4.73;;;;;;;5.94;87.14;101723.91;5059421;28;20246;-72
2023/05/25 01:51:31;;;;;;;9.70;5.30;;;;;;;5.95;87.34;101721.03;5040608;28;20218;-72
2023/05/25 01:54:01;;;;;;;6.47;4.97;;;;;;;5.92;86.92;101723.41;5053840;28;20201;-72
2023/05/25 01:56:30;;;;;;;10.70;5.37;;;;;;;5.93;87.06;101715.28;5058744;28;20198;-72
2023/05/25 01:58:58;;;;;;;8.77;4.73;;;;;;;5.91;87.33;101713.97;5053266;28;20195;-72
2023/05/25 02:01:27;;;;;;;9.90;5.00;;;;;;;5.92;87.66;101718.97;5052881;28;20276;-72
2023/05/25 02:03:54;;;;;;;7.17;4.60;;;;;;;5.88;87.17;101717.91;5046834;28;20234;-72
2023/05/25 02:06:20;;;;;;;8.40;4.73;;;;;;;5.85;87.33;101717.69;5054686;28;20201;-72
2023/05/25 02:08:48;;;;;;;7.63;4.60;;;;;;;5.87;87.42;101724.22;5052857;28;20225;-72
2023/05/25 02:11:16;;;;;;;12.73;4.63;;;;;;;5.83;87.16;101720.56;5071141;28;20231;-72
2023/05/25 02:13:42;;;;;;;8.67;4.53;;;;;;;5.84;87.09;101722.13;5055068;28;20205;-72
2023/05/25 02:16:08;;;;;;;5.33;4.30;;;;;;;5.78;87.09;101723.16;5051816;28;20203;-72
2023/05/25 02:18:35;;;;;;;6.60;4.50;;;;;;;5.75;86.79;101721.06;5066867;28;20198;-72
2023/05/25 02:21:02;;;;;;;7.87;4.20;;;;;;;5.74;87.04;101719.50;5053356;28;20219;-72
2023/05/25 02:23:28;;;;;;;9.97;5.13;;;;;;;5.74;87.03;101716.06;5061817;28;20202;-72
2023/05/25 02:25:56;;;;;;;10.00;4.80;;;;;;;5.71;87.31;101716.63;5046986;28;20676;-72
2023/05/25 02:28:24;;;;;;;7.30;4.43;;;;;;;5.68;87.16;101720.56;5052649;28;20197;-72
2023/05/25 02:30:50;;;;;;;6.57;4.27;;;;;;;5.67;87.04;101724.22;5069399;28;20226;-72
2023/05/25 02:33:19;;;;;;;8.43;4.23;;;;;;;5.68;86.89;101722.38;5077299;28;20715;-72
2023/05/25 02:35:45;;;;;;;7.27;4.20;;;;;;;5.66;87.27;101724.50;5054481;28;20262;-72
2023/05/25 02:38:12;;;;;;;7.67;4.07;;;;;;;5.67;87.10;101724.22;5077737;28;20206;-72
2023/05/25 02:40:38;;;;;;;8.30;3.83;;;;;;;5.60;87.41;101721.06;5052063;28;20226;-72
2023/05/25 02:43:06;;;;;;;8.10;4.53;;;;;;;5.57;87.09;101721.63;5062424;28;20563;-72
2023/05/25 02:45:33;;;;;;;6.63;4.87;;;;;;;5.57;86.99;101720.81;5060192;28;20190;-72
2023/05/25 02:47:59;;;;;;;6.33;4.40;;;;;;;5.56;87.07;101714.81;5072404;28;20202;-72
2023/05/25 02:50:25;;;;;;;6.70;4.10;;;;;;;5.52;87.26;101723.44;5059271;28;20241;-72
2023/05/25 02:52:55;;;;;;;6.50;4.40;;;;;;;5.53;87.31;101723.19;5059793;28;20215;-72
2023/05/25 02:55:21;;;;;;;6.63;3.93;;;;;;;5.53;87.37;101722.41;5077849;28;20275;-72
2023/05/25 02:57:48;;;;;;;9.40;4.73;;;;;;;5.49;87.13;101724.00;5064657;28;20205;-72
2023/05/25 03:00:30;;;;;;;9.50;4.70;;;;;;;5.49;87.46;101721.38;5051592;28;20284;-72
2023/05/25 03:02:57;;;;;;;8.00;4.60;;;;;;;5.45;86.93;101731.56;5073238;28;20202;-72
2023/05/25 03:05:23;;;;;;;5.57;4.10;;;;;;;5.43;86.62;101725.81;5060127;28;20692;-72
2023/05/25 03:07:49;;;;;;;8.07;4.70;;;;;;;5.45;87.19;101736.03;5058646;28;20207;-72
2023/05/25 03:10:16;;;;;;;6.53;4.53;;;;;;;5.46;86.94;101733.16;5049330;28;20573;-72
2023/05/25 03:12:43;;;;;;;6.93;4.13;;;;;;;5.48;87.44;101735.50;5062620;28;20194;-72
2023/05/25 03:15:12;;;;;;;7.67;4.67;;;;;;;5.51;87.56;101738.41;5048124;28;20206;-72
2023/05/25 03:17:39;;;;;;;8.10;4.33;;;;;;;5.56;87.46;101740.22;5060503;28;20260;-72
2023/05/25 03:20:09;;;;;;;9.37;5.00;;;;;;;5.57;87.85;101729.47;5059192;28;20191;-72
2023/05/25 03:22:37;;;;;;;7.30;5.37;;;;;;;5.61;87.91;101734.97;5056142;28;20650;-72
2023/05/25 03:25:04;;;;;;;6.70;4.70;;;;;;;5.65;88.03;101734.16;5059331;28;20658;-72
2023/05/25 03:27:30;;;;;;;8.90;5.00;;;;;;;5.70;88.20;101736.78;5052054;28;20200;-72
2023/05/25 03:29:57;;;;;;;9.80;4.97;;;;;;;5.71;88.15;101738.38;5045703;28;20215;-72
2023/05/25 03:32:24;;;;;;;8.27;4.87;;;;;;;5.77;88.14;101744.38;5053921;28;20268;-73
2023/05/25 03:34:51;;;;;;;9.03;4.47;;;;;;;5.85;88.66;101746.50;5051428;28;20217;-72
2023/05/25 03:37:18;;;;;;;7.47;4.87;;;;;;;5.86;88.64;101740.97;5059395;28;20293;-72
2023/05/25 03:39:45;;;;;;;8.87;5.13;;;;;;;5.92;88.59;101744.38;5052480;28;20202;-72
2023/05/25 03:42:11;;;;;;;12.47;5.37;;;;;;;5.95;88.48;101743.88;5050656;28;20219;-72
2023/05/25 03:44:37;;;;;;;10.37;5.50;;;;;;;6.01;88.22;101751.44;5061860;28;20742;-72
2023/05/25 03:47:04;;;;;;;9.63;5.70;;;;;;;6.03;88.44;101751.97;5080554;28;20284;-72
2023/05/25 03:49:32;;;;;;;9.47;5.60;;;;;;;6.11;88.08;101751.41;5052017;28;20206;-72
2023/05/25 03:52:00;;;;;;;12.17;5.90;;;;;;;6.15;88.45;101754.28;5043529;28;20840;-72
2023/05/25 03:54:26;;;;;;;13.67;6.00;;;;;;;6.18;88.78;101754.53;5072961;28;20201;-72
2023/05/25 03:56:53;;;;;;;11.17;5.90;;;;;;;6.25;88.68;101755.03;5077893;28;20198;-72
2023/05/25 03:59:19;;;;;;;12.17;6.00;;;;;;;6.32;88.67;101763.38;5073050;28;20210;-72
2023/05/25 04:01:49;;;;;;;11.47;5.90;;;;;;;6.42;88.26;101758.09;5054383;28;20302;-72
2023/05/25 04:04:15;;;;;;;11.87;5.67;;;;;;;6.47;88.13;101760.72;5067855;28;20195;-72
2023/05/25 04:06:44;;;;;;;11.83;6.20;;;;;;;6.54;88.29;101755.97;5073305;28;20209;-72
2023/05/25 04:09:12;;;;;;;14.40;5.90;;;;;;;6.64;88.88;101763.00;5055554;28;20297;-72
2023/05/25 04:11:39;;;;;;;15.03;6.60;;;;;;;6.72;88.08;101757.16;5073393;28;20218;-72
2023/05/25 04:14:08;;;;;;;10.83;6.00;;;;;;;6.79;88.16;101761.06;5055057;28;20603;-72
2023/05/25 04:16:39;;;;;;;8.93;6.13;;;;;;;6.90;88.24;101759.19;5055360;28;20222;-72
2023/05/25 04:19:06;;;;;;;9.67;6.33;;;;;;;7.02;87.89;101760.41;5055292;28;20198;-72
2023/05/25 04:21:33;;;;;;;10.57;6.27;;;;;;;7.11;88.28;101761.41;5055127;28;20272;-72
2023/05/25 04:24:00;;;;;;;12.23;6.37;;;;;;;7.21;87.25;101758.72;5044306;28;20194;-72
2023/05/25 04:26:27;;;;;;;8.97;6.73;;;;;;;7.32;87.04;101762.03;5064757;28;20206;-72
2023/05/25 04:29:00;;;;;;;12.77;6.60;;;;;;;7.41;87.60;101761.16;5050679;28;20187;-72
2023/05/25 04:31:46;;;;;;;10.97;6.63;;;;;;;7.54;86.49;101771.06;5074709;28;20794;-72
2023/05/25 04:34:32;;;;;;;11.93;6.83;;;;;;;7.65;87.22;101771.72;5070200;28;20750;-72
2023/05/25 04:37:20;;;;;;;10.53;6.53;;;;;;;7.76;86.54;101762.72;5054740;28;20190;-72
2023/05/25 04:39:47;;;;;;;9.60;6.10;;;;;;;7.87;86.57;101764.19;5054138;28;20191;-72
2023/05/25 04:42:15;;;;;;;11.00;6.63;;;;;;;7.99;86.03;101765.38;5052985;28;20210;-72
2023/05/25 04:44:43;;;;;;;14.93;6.07;;;;;;;8.10;85.68;101774.72;5053799;28;20194;-72
2023/05/25 04:47:11;;;;;;;10.30;5.87;;;;;;;8.22;85.38;101776.97;5048846;28;20200;-72
2023/05/25 04:49:39;;;;;;;10.87;6.33;;;;;;;8.34;85.48;101774.75;5056419;28;20221;-72
2023/05/25 04:52:07;;;;;;;8.50;5.67;;;;;;;8.42;84.41;101777.53;5049299;28;20678;-72
2023/05/25 04:54:34;;;;;;;12.87;6.47;;;;;;;8.50;84.26;101776.13;5051944;28;20302;-72
2023/05/25 04:57:02;;;;;;;10.23;5.77;;;;;;;8.64;84.17;101783.03;5050707;28;20223;-72
2023/05/25 04:59:31;;;;;;;10.47;5.80;;;;;;;8.75;84.25;101781.84;5053870;28;20190;-72
2023/05/25 05:01:59;;;;;;;12.83;5.47;;;;;;;8.87;83.86;101784.06;5051700;28;20717;-72
2023/05/25 05:04:26;;;;;;;8.03;5.30;;;;;;;8.97;84.13;101787.34;5051937;28;20191;-72
2023/05/25 05:06:53;;;;;;;8.07;5.30;;;;;;;9.09;83.78;101786.91;5066553;28;20214;-72
2023/05/25 05:09:22;;;;;;;10.57;5.70;;;;;;;9.18;82.96;101791.25;5061157;28;20188;-72
2023/05/25 05:11:49;;;;;;;7.80;5.23;;;;;;;9.32;82.97;101793.94;5050500;28;20229;-72
2023/05/25 05:14:17;;;;;;;10.17;5.03;;;;;;;9.40;82.87;101786.16;5046634;28;20199;-72
2023/05/25 05:16:46;;;;;;;11.17;5.73;;;;;;;9.52;82.01;101788.34;5051654;28;20628;-72
2023/05/25 05:19:13;;;;;;;9.93;5.63;;;;;;;9.60;81.49;101783.19;5054327;28;20190;-72
2023/05/25 05:21:40;;;;;;;9.53;5.33;;;;;;;9.69;81.76;101789.34;5051655;28;20214;-72
2023/05/25 05:24:07;;;;;;;9.07;4.90;;;;;;;9.79;80.89;101791.81;5046274;28;20203;-72
2023/05/25 05:26:34;;;;;;;12.13;5.03;;;;;;;9.89;81.09;101796.16;5050234;28;20237;-72
2023/05/25 05:29:00;;;;;;;12.00;5.23;;;;;;;9.99;80.55;101793.34;5058862;28;20200;-71
2023/05/25 05:31:28;;;;;;;9.67;5.43;;;;;;;10.11;80.86;101801.59;5044485;28;20284;-72
2023/05/25 05:33:56;;;;;;;10.40;5.40;;;;;;;10.21;80.97;101799.56;5054334;28;20218;-72
2023/05/25 05:36:22;;;;;;;9.33;5.27;;;;;;;10.30;80.44;101810.97;5055683;28;20212;-72
2023/05/25 05:38:49;;;;;;;9.87;5.13;;;;;;;10.42;79.27;101805.22;5048812;28;20193;-72
2023/05/25 05:41:16;;;;;;;7.37;5.03;;;;;;;10.51;78.86;101809.50;5056432;28;20314;-72
2023/05/25 05:43:47;;;;;;;10.27;5.43;;;;;;;10.62;79.44;101807.44;5048773;28;20630;-72
2023/05/25 05:46:14;;;;;;;9.23;5.40;;;;;;;10.74;79.75;101810.34;5055307;28;20190;-72
2023/05/25 05:48:41;;;;;;;9.60;5.13;;;;;;;10.86;79.54;101807.97;5048466;28;20623;-72
2023/05/25 05:51:08;;;;;;;9.63;5.33;;;;;;;10.96;79.37;101807.75;5052520;28;20291;-72
2023/05/25 05:53:35;;;;;;;10.70;6.20;;;;;;;11.08;77.98;101808.81;5049371;28;20230;-72
2023/05/25 05:56:02;;;;;;;7.53;4.90;;;;;;;11.18;77.65;101813.84;5070862;28;20208;-72
2023/05/25 05:58:29;;;;;;;9.60;5.30;;;;;;;11.32;77.05;101814.59;5047896;28;20195;-72
2023/05/25 06:00:58;;;;;;;7.60;4.77;;;;;;;11.42;76.33;101809.06;5047980;28;20216;-72
2023/05/25 06:03:26;;;;;;;9.20;5.20;;;;;;;11.55;76.16;101810.09;5045372;28;20726;-72
2023/05/25 06:05:55;;;;;;;8.17;4.90;;;;;;;11.65;76.08;101809.88;5049575;28;20289;-72
2023/05/25 06:08:23;;;;;;;8.10;5.73;;;;;;;11.77;75.87;101818.03;5048915;28;20202;-72
2023/05/25 06:10:50;;;;;;;8.73;5.13;;;;;;;11.86;76.32;101818.88;5048176;28;20324;-72
2023/05/25 06:13:16;;;;;;;9.17;5.30;;;;;;;11.97;75.21;101823.59;5064444;28;20211;-72
2023/05/25 06:15:42;;;;;;;10.03;5.27;;;;;;;12.09;74.46;101831.75;5050823;28;20203;-72
2023/05/25 06:18:13;;;;;;;6.73;5.40;;;;;;;12.19;74.25;101831.50;5045269;28;20209;-72
2023/05/25 06:20:40;;;;;;;10.00;5.43;;;;;;;12.31;73.79;101833.56;5044462;28;20220;-72
2023/05/25 06:23:08;;;;;;;8.53;5.10;;;;;;;12.41;73.39;101830.63;5051188;28;20204;-72
2023/05/25 06:25:35;;;;;;;10.50;5.27;;;;;;;12.49;73.30;101825.38;5053784;28;20576;-72
2023/05/25 06:28:02;;;;;;;12.63;5.10;;;;;;;12.61;73.63;101830.06;5050410;28;20669;-72
2023/05/25 06:30:28;;;;;;;8.70;5.40;;;;;;;12.72;73.35;101832.13;5069687;28;20222;-72
2023/05/25 06:32:55;;;;;;;8.10;4.80;;;;;;;12.81;72.46;101829.47;5053962;28;20274;-72
2023/05/25 06:35:21;;;;;;;9.37;4.67;;;;;;;12.91;72.59;101827.31;5046001;28;20607;-72
2023/05/25 06:37:50;;;;;;;10.60;4.30;;;;;;;13.03;72.53;101834.66;5045511;28;20567;-72
2023/05/25 06:40:18;;;;;;;10.30;5.03;;;;;;;13.16;71.06;101828.47;5049640;28;20216;-72
2023/05/25 06:42:46;;;;;;;8.40;4.87;;;;;;;13.27;71.15;101832.34;5047521;28;20231;-72
2023/05/25 06:45:32;;;;;;;6.20;4.30;;;;;;;13.39;69.77;101835.94;5069124;28;20747;-72
2023/05/25 06:47:59;;;;;;;9.90;4.70;;;;;;;13.50;69.59;101836.41;5050216;28;20201;-72
2023/05/25 06:50:25;;;;;;;10.97;5.27;;;;;;;13.59;68.36;101832.63;5049101;28;20595;-72
2023/05/25 06:52:52;;;;;;;7.60;4.47;;;;;;;13.68;68.58;101841.38;5066888;28;20284;-72
2023/05/25 06:55:18;;;;;;;8.03;4.30;;;;;;;13.76;68.35;101829.19;5067651;28;20207;-72
2023/05/25 06:57:44;;;;;;;6.87;4.60;;;;;;;13.86;69.57;101836.78;5070960;28;20206;-72
2023/05/25 07:00:15;;;;;;;7.70;4.73;;;;;;;13.97;68.00;101833.47;5066646;28;20187;-72
2023/05/25 07:02:41;;;;;;;10.00;6.00;;;;;;;14.04;68.50;101833.00;5068713;28;20340;-72
2023/05/25 07:05:08;;;;;;;8.93;4.70;;;;;;;14.14;68.00;101833.44;5067360;28;20207;-72
2023/05/25 07:07:34;;;;;;;9.00;4.70;;;;;;;14.23;67.63;101833.44;5065951;28;20211;-72
2023/05/25 07:10:02;;;;;;;7.03;4.13;;;;;;;14.36;67.04;101840.41;5066593;28;20203;-72
2023/05/25 07:12:29;;;;;;;7.87;4.23;;;;;;;14.45;65.03;101835.81;5067444;28;20299;-72
2023/05/25 07:14:57;;;;;;;8.37;4.30;;;;;;;14.54;65.35;101837.34;5042747;28;20195;-72
2023/05/25 07:17:25;;;;;;;8.83;4.20;;;;;;;14.64;65.27;101833.53;5065661;28;20626;-72
2023/05/25 07:19:51;;;;;;;8.83;3.90;;;;;;;14.76;64.81;101839.69;5065891;28;20280;-72
2023/05/25 07:22:18;;;;;;;9.77;3.90;;;;;;;14.84;65.72;101840.75;5065269;28;20289;-72
2023/05/25 07:24:44;;;;;;;7.23;4.20;;;;;;;14.95;64.99;101834.72;5065620;28;20204;-72
2023/05/25 07:27:11;;;;;;;9.57;4.13;;;;;;;15.07;64.25;101836.69;5070219;28;20212;-72
2023/05/25 07:29:38;;;;;;;8.07;4.10;;;;;;;15.15;66.45;101839.28;5051899;28;20192;-72
2023/05/25 07:32:04;;;;;;;7.17;3.77;;;;;;;15.25;66.33;101840.75;5070384;28;20218;-72
2023/05/25 07:34:33;;;;;;;6.10;3.60;;;;;;;15.38;64.53;101835.19;5051948;28;20259;-72
2023/05/25 07:36:59;;;;;;;7.57;3.90;;;;;;;15.47;64.38;101835.88;5050004;28;20211;-72
2023/05/25 07:39:26;;;;;;;7.47;3.77;;;;;;;15.55;62.30;101839.59;5068331;28;20202;-72
2023/05/25 07:41:52;;;;;;;10.67;3.80;;;;;;;15.65;61.36;101833.84;5069229;28;20217;-71
2023/05/25 07:44:19;;;;;;;8.53;3.77;;;;;;;15.73;61.12;101833.00;5070872;28;20904;-71
2023/05/25 07:46:45;;;;;;;7.07;3.80;;;;;;;15.80;61.01;101836.69;5066574;28;20202;-71
2023/05/25 07:49:14;;;;;;;6.83;3.40;;;;;;;15.87;61.33;101831.56;5066496;28;20685;-71
2023/05/25 07:51:43;;;;;;;6.17;3.67;;;;;;;15.97;61.59;101831.16;5066929;28;20733;-71
2023/05/25 07:54:09;;;;;;;5.47;3.40;;;;;;;16.06;62.05;101836.38;5067988;28;20220;-71
2023/05/25 07:56:36;;;;;;;10.03;3.57;;;;;;;16.16;60.48;101843.94;5067996;28;20210;-71
2023/05/25 07:59:02;;;;;;;9.80;3.63;;;;;;;16.25;59.20;101841.97;5068787;28;20186;-71
2023/05/25 08:01:29;;;;;;;8.67;3.70;;;;;;;16.31;58.35;101846.72;5070522;28;20210;-71
2023/05/25 08:03:55;;;;;;;5.37;3.03;;;;;;;16.37;57.99;101845.41;5066709;28;20206;-71
2023/05/25 08:06:22;;;;;;;6.70;3.63;;;;;;;16.46;58.36;101848.00;5067868;28;20205;-71
2023/05/25 08:08:50;;;;;;;6.50;2.97;;;;;;;16.56;60.02;101842.97;5044282;28;20728;-71
2023/05/25 08:11:17;;;;;;;8.87;3.57;;;;;;;16.69;57.17;101849.06;5065351;28;20229;-71
2023/05/25 08:13:43;;;;;;;8.73;3.77;;;;;;;16.73;58.17;101850.75;5063166;28;20695;-71
2023/05/25 08:16:10;;;;;;;8.17;3.37;;;;;;;16.81;57.13;101841.06;5069815;28;20209;-71
2023/05/25 08:18:39;;;;;;;7.10;3.47;;;;;;;16.88;56.70;101838.59;5066137;28;20206;-71
2023/05/25 08:21:06;;;;;;;8.10;3.20;;;;;;;16.89;59.48;101835.59;5061517;28;20223;-71
2023/05/25 08:23:32;;;;;;;6.90;3.07;;;;;;;16.93;57.29;101839.13;5068375;28;20212;-71
2023/05/25 08:26:00;;;;;;;9.23;4.13;;;;;;;16.91;53.99;101833.38;5065856;28;20206;-71
2023/05/25 08:28:26;;;;;;;7.13;3.17;;;;;;;16.96;54.49;101835.81;5066096;28;20263;-71
2023/05/25 08:30:53;;;;;;;7.93;3.40;;;;;;;17.07;55.49;101831.53;5062824;28;20223;-72
2023/05/25 08:33:19;;;;;;;5.57;2.87;;;;;;;17.18;53.27;101839.88;5068762;28;20932;-71
2023/05/25 08:35:48;;;;;;;4.37;2.83;;;;;;;17.29;54.25;101833.69;5067838;28;20221;-71
2023/05/25 08:38:15;;;;;;;5.43;2.87;;;;;;;17.40;55.11;101834.00;5063091;28;20207;-71
2023/05/25 08:40:42;;;;;;;5.37;3.20;;;;;;;17.51;55.60;101840.41;5066498;28;20258;-71
2023/05/25 08:43:10;;;;;;;6.70;3.50;;;;;;;17.66;52.67;101837.00;5065596;28;20210;-72
2023/05/25 08:45:36;;;;;;;9.20;3.10;;;;;;;17.74;53.96;101826.16;5066809;28;20209;-72
2023/05/25 08:48:07;;;;;;;6.20;2.60;;;;;;;17.85;57.71;101835.22;5067107;28;20273;-72
2023/05/25 08:50:33;;;;;;;8.13;4.23;;;;;;;17.92;52.95;101834.63;5053224;28;20233;-73
2023/05/25 08:53:03;;;;;;;5.60;2.97;;;;;;;18.09;50.81;101829.72;5077276;28;20272;-72
2023/05/25 08:55:34;;;;;;;6.63;3.70;;;;;;;18.27;51.28;101846.19;5069317;28;20203;-73
2023/05/25 08:58:07;;;;;;;5.03;2.50;;;;;;;18.45;53.23;101842.84;5060788;28;20248;-73
2023/05/25 09:00:40;;;;;;;5.87;2.50;;;;;;;18.57;52.20;101841.97;5083045;28;20194;-71
2023/05/25 09:03:13;;;;;;;5.93;2.57;;;;;;;18.61;52.28;101851.59;5076848;28;20277;-73
2023/05/25 09:05:39;;;;;;;3.93;2.30;;;;;;;18.62;49.45;101852.41;5074507;28;20217;-72
2023/05/25 09:08:07;;;;;;;6.03;2.60;;;;;;;18.59;50.10;101853.88;5082357;28;20187;-72
2023/05/25 09:10:35;;;;;;;7.10;2.93;;;;;;;18.60;49.03;101851.94;5083245;28;20205;-73
2023/05/25 09:13:03;;;;;;;5.60;2.33;;;;;;;18.66;51.37;101851.34;5077774;28;20198;-72
2023/05/25 09:15:29;;;;;;;4.93;2.40;;;;;;;18.76;51.61;101860.72;5061107;28;20206;-72
2023/05/25 09:17:57;;;;;;;6.67;2.40;;;;;;;18.81;47.78;101847.84;5077333;28;20219;-71
2023/05/25 09:20:30;;;;;;;4.53;2.40;;;;;;;18.89;49.77;101851.47;5083833;28;20680;-72
2023/05/25 09:22:57;;;;;;;5.43;2.73;;;;;;;18.96;48.81;101851.59;5079296;28;20187;-72
2023/05/25 09:25:25;;;;;;;4.77;2.43;;;;;;;19.10;48.79;101849.97;5080666;28;20227;-71
2023/05/25 09:27:51;;;;;;;5.20;2.30;;;;;;;19.14;48.14;101858.88;5081811;28;20198;-71
2023/05/25 09:30:18;;;;;;;4.57;2.40;;;;;;;19.11;49.98;101859.59;5078188;28;20225;-70
2023/05/25 09:32:44;;;;;;;4.20;2.20;;;;;;;19.12;47.72;101852.31;5081056;28;20210;-71
2023/05/25 09:35:14;;;;;;;4.43;2.03;;;;;;;19.17;50.06;101847.47;5086082;28;20236;-72
2023/05/25 09:37:41;;;;;;;3.80;2.20;;;;;;;19.25;46.95;101853.78;5063158;28;20191;-72
2023/05/25 09:40:10;;;;;;;3.47;1.83;;;;;;;19.34;48.60;101846.28;5073582;28;20262;-71
2023/05/25 09:42:37;;;;;;;8.13;2.23;;;;;;;19.47;49.01;101845.00;5067087;28;20218;-71
2023/05/25 09:45:04;;;;;;;6.90;2.23;;;;;;;19.62;51.63;101844.91;5079750;28;20212;-72
2023/05/25 09:47:31;;;;;;;4.23;2.20;;;;;;;19.77;48.30;101845.94;5071826;28;20651;-70
2023/05/25 09:49:59;;;;;;;7.47;2.30;;;;;;;19.94;47.84;101848.94;5082141;28;20190;-71
2023/05/25 09:52:27;;;;;;;3.67;2.07;;;;;;;20.16;49.24;101848.19;5072836;28;20218;-71
2023/05/25 09:54:55;;;;;;;4.07;2.20;;;;;;;20.32;50.54;101840.78;5083720;28;20199;-70
2023/05/25 09:57:21;;;;;;;4.27;2.33;;;;;;;20.51;46.66;101848.72;5067563;28;20206;-71
2023/05/25 09:59:48;;;;;;;5.87;2.27;;;;;;;20.70;44.47;101845.91;5066174;28;20203;-71
2023/05/25 10:02:14;;;;;;;4.00;2.40;;;;;;;20.84;46.00;101845.34;5070814;28;20222;-71
2023/05/25 10:04:41;;;;;;;5.17;2.20;;;;;;;20.98;44.42;101848.25;5068303;28;20266;-71
2023/05/25 10:07:08;;;;;;;3.93;2.07;;;;;;;21.11;43.41;101847.63;5087002;28;20471;-70
2023/05/25 10:09:40;;;;;;;5.70;2.20;;;;;;;21.17;44.62;101856.16;5083502;28;20203;-70
2023/05/25 10:12:08;;;;;;;4.10;2.57;;;;;;;21.10;43.22;101853.38;5086311;28;20221;-71
2023/05/25 10:14:36;;;;;;;6.50;2.83;;;;;;;21.07;45.74;101864.84;5078798;28;20202;-71
2023/05/25 10:17:05;;;;;;;3.83;2.70;;;;;;;20.86;44.26;101853.81;5080229;28;20201;-71
2023/05/25 10:19:36;;;;;;;4.60;2.33;;;;;;;20.79;43.54;101856.38;5078918;28;20211;-72
2023/05/25 10:22:06;;;;;;;7.07;3.47;;;;;;;20.72;44.54;101849.03;5074951;28;20224;-72
2023/05/25 10:24:42;;;;;;;6.10;2.50;;;;;;;20.53;44.14;101854.50;5077002;28;20272;-72
2023/05/25 10:27:13;;;;;;;4.00;2.30;;;;;;;20.42;44.20;101855.47;5076109;28;20205;-72
2023/05/25 10:29:40;;;;;;;5.57;2.70;;;;;;;20.36;45.53;101854.22;5073070;28;20214;-70
2023/05/25 10:32:07;;;;;;;5.10;2.90;;;;;;;20.33;45.14;101860.34;5072848;28;20233;-72
2023/05/25 10:34:34;;;;;;;9.03;2.60;;;;;;;20.36;46.87;101846.97;5070794;28;20201;-70
2023/05/25 10:37:03;;;;;;;5.33;2.47;;;;;;;20.46;48.43;101859.00;5073361;28;20262;-71
2023/05/25 10:39:30;;;;;;;4.53;2.60;;;;;;;20.52;43.12;101847.59;5077967;28;20205;-72
2023/05/25 10:42:00;;;;;;;6.00;2.50;;;;;;;20.61;42.59;101852.69;5075523;28;20211;-70
2023/05/25 10:44:29;;;;;;;5.40;3.10;;;;;;;20.67;42.35;101845.88;5077949;28;20187;-72
2023/05/25 10:46:55;;;;;;;7.50;2.83;;;;;;;20.71;41.41;101850.19;5071020;28;20194;-71
2023/05/25 10:49:51;;;;;;;5.97;2.50;;;;;;;20.66;40.42;101844.34;5070935;28;20277;-72
2023/05/25 10:52:18;;;;;;;4.40;2.50;;;;;;;20.63;41.17;101848.50;5077515;28;20221;-71
2023/05/25 10:54:46;;;;;;;5.83;2.47;;;;;;;20.58;41.44;101840.78;5079094;28;20218;-72
2023/05/25 10:57:19;;;;;;;4.20;2.60;;;;;;;20.50;42.38;101835.66;5074747;28;20199;-71
2023/05/25 10:59:50;;;;;;;3.70;2.27;;;;;;;20.49;42.52;101840.25;5076595;28;20199;-72
2023/05/25 11:02:16;;;;;;;3.90;2.13;;;;;;;20.46;42.50;101824.88;5055396;28;20217;-72
2023/05/25 11:04:46;;;;;;;5.83;2.53;;;;;;;20.53;41.64;101833.03;5078419;28;20217;-72
2023/05/25 11:07:15;;;;;;;5.77;2.27;;;;;;;20.55;42.13;101830.00;5078151;28;20222;-72
2023/05/25 11:09:43;;;;;;;5.33;2.33;;;;;;;20.53;43.47;101835.72;5073969;28;20564;-72
2023/05/25 11:12:20;;;;;;;4.03;2.17;;;;;;;20.47;42.98;101834.47;5077838;28;20244;-70
2023/05/25 11:15:17;;;;;;;4.40;2.20;;;;;;;20.50;43.36;101830.31;5076863;28;20243;-72
2023/05/25 11:17:46;;;;;;;5.70;2.47;;;;;;;20.54;43.49;101831.13;5076688;28;20266;-72
2023/05/25 11:20:21;;;;;;;6.47;2.30;;;;;;;20.62;44.24;101822.81;5077882;28;20595;-70
2023/05/25 11:22:50;;;;;;;4.73;2.40;;;;;;;20.73;45.57;101822.94;5077975;28;20198;-72
2023/05/25 11:25:38;;;;;;;7.23;2.50;;;;;;;20.83;42.67;101812.34;5061850;28;20195;-72
2023/05/25 11:28:09;;;;;;;3.97;2.43;;;;;;;20.93;47.45;101817.13;5080966;28;20600;-71
2023/05/25 11:30:36;;;;;;;4.90;2.30;;;;;;;21.05;42.99;101816.88;5078667;28;20198;-72